createdAt,value
2022-08-23T00:00:13.291Z,20399.19
2022-08-23T00:02:43.665Z,20389.03
2022-08-23T00:05:12.737Z,20403.25
2022-08-23T00:07:44.072Z,20447.97
2022-08-23T00:10:16.981Z,20393.09
2022-08-23T00:12:47.057Z,20354.47
2022-08-23T00:15:20.784Z,20348.38
2022-08-23T00:17:50.401Z,20326.03
2022-08-23T00:20:21.201Z,20321.97
2022-08-23T00:22:49.382Z,20297.56
2022-08-23T00:25:17.793Z,20299.59
2022-08-23T00:27:46.015Z,20307.72
2022-08-23T00:30:16.769Z,20303.66
2022-08-23T00:32:46.053Z,20307.72
2022-08-23T00:35:26.814Z,20252.84
2022-08-23T00:38:31.824Z,20244.72
2022-08-23T00:40:47.560Z,20269.13
2022-08-23T00:43:38.921Z,20258.94
2022-08-23T00:46:40.715Z,20281.31
2022-08-23T00:49:14.072Z,20260.97
2022-08-23T00:51:53.640Z,20273.19
2022-08-23T00:54:25.388Z,20193.91
2022-08-23T00:56:54.996Z,20179.69
2022-08-23T00:59:23.888Z,20173.59
2022-08-23T01:01:52.973Z,20228.47
2022-08-23T01:04:21.861Z,20248.78
2022-08-23T01:07:00.337Z,20193.91
2022-08-23T01:09:28.919Z,20175.63
2022-08-23T01:12:06.921Z,20175.63
2022-08-23T01:14:42.650Z,20175.63
2022-08-23T01:17:17.645Z,20185.78
2022-08-23T01:19:51.798Z,20185.78
2022-08-23T01:22:31.038Z,20165.44
2022-08-23T01:25:07.398Z,20204.06
2022-08-23T01:27:38.326Z,20177.66
2022-08-23T01:30:11.783Z,20173.59
2022-08-23T01:32:46.865Z,20175.63
2022-08-23T01:35:16.819Z,20169.53
2022-08-23T01:37:45.847Z,20212.19
2022-08-23T01:40:16.154Z,20195.94
2022-08-23T01:42:44.784Z,20169.53
2022-08-23T01:45:15.586Z,20200.00
2022-08-23T01:47:44.178Z,20200.00
2022-08-23T01:50:14.062Z,20204.06
2022-08-23T01:52:47.156Z,20197.97
2022-08-23T01:55:18.309Z,20183.75
2022-08-23T01:57:50.172Z,20151.22
2022-08-23T02:00:20.115Z,20143.09
2022-08-23T02:02:48.273Z,20159.34
2022-08-23T02:05:19.003Z,20149.19
2022-08-23T02:07:48.012Z,20112.59
2022-08-23T02:10:17.917Z,20108.53
2022-08-23T02:12:46.694Z,20124.81
2022-08-23T02:15:16.101Z,20128.88
2022-08-23T02:17:46.499Z,20151.22
2022-08-23T02:20:15.203Z,20145.13
2022-08-23T02:22:43.336Z,20110.56
2022-08-23T02:25:11.752Z,20106.50
2022-08-23T02:27:44.104Z,20128.88
2022-08-23T02:30:14.683Z,20173.59
2022-08-23T02:32:42.751Z,20098.38
2022-08-23T02:35:12.027Z,20104.47
2022-08-23T02:37:40.277Z,20120.75
2022-08-23T02:40:09.897Z,20074.00
2022-08-23T02:42:38.110Z,20088.22
2022-08-23T02:45:09.415Z,20051.63
2022-08-23T02:47:38.812Z,20021.16
2022-08-23T02:50:09.337Z,20017.09
2022-08-23T02:52:37.523Z,19996.75
2022-08-23T02:55:07.520Z,19988.63
2022-08-23T02:57:35.681Z,20008.94
2022-08-23T03:00:05.696Z,19935.78
2022-08-23T03:02:35.279Z,20000.81
2022-08-23T03:05:03.504Z,19980.50
2022-08-23T03:07:31.947Z,19960.16
2022-08-23T03:10:00.270Z,19952.03
2022-08-23T03:12:28.584Z,19962.19
2022-08-23T03:14:56.750Z,19950.00
2022-08-23T03:17:25.577Z,19943.91
2022-08-23T03:19:55.326Z,19958.13
2022-08-23T03:22:24.188Z,19925.63
2022-08-23T03:24:52.448Z,19905.28
2022-08-23T03:27:20.594Z,19864.66
2022-08-23T03:29:48.823Z,19889.03
2022-08-23T03:32:17.054Z,19891.06
2022-08-23T03:34:45.384Z,19903.25
2022-08-23T03:37:15.420Z,19927.66
2022-08-23T03:39:43.507Z,19882.94
2022-08-23T03:42:11.986Z,19866.69
2022-08-23T03:44:40.319Z,19889.03
2022-08-23T03:47:08.742Z,19832.13
2022-08-23T03:49:37.191Z,19887.00
2022-08-23T03:52:05.812Z,19870.75
2022-08-23T03:54:36.309Z,19838.22
2022-08-23T03:57:09.370Z,19805.72
2022-08-23T03:59:41.130Z,19805.72
2022-08-23T04:02:10.068Z,19742.72
2022-08-23T04:04:38.335Z,19761.00
2022-08-23T04:07:06.747Z,19720.34
2022-08-23T04:09:36.198Z,19700.03
2022-08-23T04:12:12.075Z,19679.72
2022-08-23T04:14:46.734Z,19663.44
2022-08-23T04:17:15.739Z,19708.16
2022-08-23T04:19:43.962Z,19724.41
2022-08-23T04:22:16.061Z,19695.97
2022-08-23T04:24:47.198Z,19738.66
2022-08-23T04:27:15.939Z,19781.31
2022-08-23T04:29:44.357Z,19783.34
2022-08-23T04:32:12.903Z,19720.34
2022-08-23T04:34:45.369Z,19783.34
2022-08-23T04:37:14.047Z,19746.78
2022-08-23T04:39:56.560Z,19779.28
2022-08-23T04:42:26.201Z,19740.69
2022-08-23T04:44:54.280Z,19787.41
2022-08-23T04:47:22.380Z,19828.06
2022-08-23T04:49:50.473Z,19811.81
2022-08-23T04:52:19.525Z,19809.78
2022-08-23T04:54:47.925Z,19824.00
2022-08-23T04:57:16.802Z,19795.53
2022-08-23T04:59:46.248Z,19799.63
2022-08-23T05:02:14.603Z,19787.41
2022-08-23T05:04:42.716Z,19783.34
2022-08-23T05:07:10.844Z,19789.44
2022-08-23T05:09:39.254Z,19769.13
2022-08-23T05:12:07.854Z,19765.06
2022-08-23T05:14:36.551Z,19805.72
2022-08-23T05:17:06.511Z,19783.34
2022-08-23T05:19:36.274Z,19866.69
2022-08-23T05:22:12.608Z,19862.63
2022-08-23T05:24:40.942Z,19927.66
2022-08-23T05:27:13.490Z,19891.06
2022-08-23T05:29:42.134Z,19925.63
2022-08-23T05:32:11.653Z,19935.78
2022-08-23T05:34:39.716Z,19958.13
2022-08-23T05:37:07.773Z,19980.50
2022-08-23T05:39:36.256Z,20059.75
2022-08-23T05:42:05.744Z,20069.94
2022-08-23T05:44:36.124Z,20106.50
2022-08-23T05:47:10.738Z,20086.19
2022-08-23T05:49:41.497Z,20134.97
2022-08-23T05:52:13.091Z,20197.97
2022-08-23T05:54:42.003Z,20317.91
2022-08-23T05:57:11.438Z,20291.47
2022-08-23T05:59:40.617Z,20319.94
2022-08-23T06:02:08.801Z,20344.31
2022-08-23T06:04:37.128Z,20319.94
2022-08-23T06:07:06.875Z,20317.91
2022-08-23T06:09:35.120Z,20356.50
2022-08-23T06:12:03.535Z,20389.03
2022-08-23T06:14:31.764Z,20401.22
2022-08-23T06:16:59.928Z,20450.03
2022-08-23T06:19:28.099Z,20415.47
2022-08-23T06:21:56.294Z,20433.75
2022-08-23T06:24:26.896Z,20403.25
2022-08-23T06:26:55.071Z,20399.19
2022-08-23T06:29:23.262Z,20407.34
2022-08-23T06:31:54.117Z,20411.41
2022-08-23T06:34:26.328Z,20425.63
2022-08-23T06:36:57.451Z,20504.91
2022-08-23T06:39:33.442Z,20450.03
2022-08-23T06:42:34.433Z,20454.09
2022-08-23T06:44:57.463Z,20504.91
2022-08-23T06:47:25.614Z,20506.94
2022-08-23T06:49:57.930Z,20513.03
2022-08-23T06:52:27.243Z,20474.41
2022-08-23T06:54:57.911Z,20468.31
2022-08-23T06:57:26.448Z,20437.81
2022-08-23T06:59:54.964Z,20472.38
2022-08-23T07:02:23.173Z,20569.94
2022-08-23T07:04:54.028Z,20523.19
2022-08-23T07:07:22.639Z,20513.03
2022-08-23T07:09:50.935Z,20555.72
2022-08-23T07:12:22.059Z,20620.78
2022-08-23T07:14:50.451Z,20624.84
2022-08-23T07:17:18.698Z,20630.94
2022-08-23T07:19:47.068Z,20673.63
2022-08-23T07:22:15.553Z,20708.19
2022-08-23T07:24:44.061Z,20685.81
2022-08-23T07:27:12.683Z,20748.84
2022-08-23T07:29:42.584Z,20756.97
2022-08-23T07:32:11.277Z,20726.47
2022-08-23T07:34:39.448Z,20756.97
2022-08-23T07:37:15.448Z,20691.91
2022-08-23T07:39:44.513Z,20718.34
2022-08-23T07:42:22.753Z,20761.03
2022-08-23T07:44:53.875Z,20736.63
2022-08-23T07:47:22.511Z,20777.28
2022-08-23T07:49:51.021Z,20811.84
2022-08-23T07:52:19.098Z,20793.56
2022-08-23T07:54:48.331Z,20797.63
2022-08-23T07:57:16.977Z,20822.03
2022-08-23T07:59:45.921Z,20809.81
2022-08-23T08:02:15.702Z,20826.09
2022-08-23T08:04:44.010Z,20907.41
2022-08-23T08:07:19.394Z,20986.69
2022-08-23T08:09:49.101Z,21009.03
2022-08-23T08:12:17.680Z,21078.16
2022-08-23T08:14:46.834Z,21151.34
2022-08-23T08:17:17.114Z,21135.09
2022-08-23T08:19:46.025Z,21183.88
2022-08-23T08:22:14.176Z,21183.88
2022-08-23T08:24:42.497Z,21169.66
2022-08-23T08:27:11.038Z,21183.88
2022-08-23T08:29:39.076Z,21204.22
2022-08-23T08:32:08.178Z,21283.50
2022-08-23T08:34:43.757Z,21352.63
2022-08-23T08:37:12.149Z,21307.91
2022-08-23T08:39:45.540Z,21364.84
2022-08-23T08:42:41.376Z,21446.16
2022-08-23T08:45:17.576Z,21480.72
2022-08-23T08:47:51.102Z,21511.22
2022-08-23T08:50:26.615Z,21570.19
2022-08-23T08:53:02.674Z,21588.50
2022-08-23T08:55:38.144Z,21549.84
2022-08-23T08:58:15.254Z,21509.19
2022-08-23T09:00:44.102Z,21558.00
2022-08-23T09:03:20.316Z,21547.81
2022-08-23T09:05:58.488Z,21606.78
2022-08-23T09:08:54.463Z,21588.50
2022-08-23T09:11:40.973Z,21635.25
2022-08-23T09:14:47.299Z,21606.78
2022-08-23T09:17:26.287Z,21732.84
2022-08-23T09:20:01.297Z,21726.75
2022-08-23T09:22:38.836Z,21714.56
2022-08-23T09:25:10.812Z,21716.59
2022-08-23T09:27:39.582Z,21722.69
2022-08-23T09:30:09.580Z,21665.75
2022-08-23T09:32:41.276Z,21690.16
2022-08-23T09:35:17.222Z,21588.50
2022-08-23T09:37:59.368Z,21555.97
2022-08-23T09:40:35.163Z,21494.97
2022-08-23T09:43:14.210Z,21448.19
2022-08-23T09:45:55.928Z,21417.69
2022-08-23T09:48:40.907Z,21444.13
2022-08-23T09:51:20.720Z,21452.25
2022-08-23T09:54:02.955Z,21413.63
2022-08-23T09:56:37.922Z,21438.03
2022-08-23T09:59:26.940Z,21375.00
2022-08-23T10:01:59.202Z,21419.72
2022-08-23T10:04:44.674Z,21423.81
2022-08-23T10:07:38.279Z,21427.88
2022-08-23T10:10:24.426Z,21484.78
2022-08-23T10:12:54.296Z,21472.59
2022-08-23T10:15:41.415Z,21543.75
2022-08-23T10:18:23.698Z,21659.66
2022-08-23T10:21:04.183Z,21694.22
2022-08-23T10:23:51.040Z,21808.09
2022-08-23T10:26:28.251Z,21948.41
2022-08-23T10:29:26.201Z,21995.16
2022-08-23T10:32:15.180Z,22025.66
2022-08-23T10:34:59.415Z,22001.28
2022-08-23T10:37:45.984Z,22086.69
2022-08-23T10:40:25.568Z,22050.06
2022-08-23T10:43:15.175Z,21952.47
2022-08-23T10:45:47.544Z,21954.50
2022-08-23T10:48:28.548Z,21881.28
2022-08-23T10:51:02.488Z,21814.19
2022-08-23T10:53:41.447Z,21808.09
2022-08-23T10:56:13.474Z,21795.88
2022-08-23T10:58:48.938Z,21755.22
2022-08-23T11:01:22.993Z,21728.78
2022-08-23T11:04:04.853Z,21718.63
2022-08-23T11:06:50.967Z,21667.78
2022-08-23T11:09:51.051Z,21675.94
2022-08-23T11:12:30.831Z,21669.81
2022-08-23T11:15:25.403Z,21612.88
2022-08-23T11:18:03.299Z,21535.63
2022-08-23T11:21:04.725Z,21576.28
2022-08-23T11:23:58.087Z,21726.75
2022-08-23T11:27:06.415Z,21907.72
2022-08-23T11:29:38.936Z,22102.94
2022-08-23T11:32:43.687Z,22174.13
2022-08-23T11:35:43.095Z,22137.50
2022-08-23T11:38:13.090Z,22200.56
2022-08-23T11:41:01.104Z,22129.38
2022-08-23T11:43:35.092Z,22080.56
2022-08-23T11:46:34.701Z,21997.19
2022-08-23T11:50:04.158Z,21960.59
2022-08-23T11:53:22.771Z,22019.56
2022-08-23T11:56:17.392Z,22172.09
2022-08-23T11:59:21.013Z,22239.19
2022-08-23T12:01:52.041Z,22357.16
2022-08-23T12:04:39.097Z,22344.94
2022-08-23T12:07:13.114Z,22273.78
2022-08-23T12:09:57.823Z,22267.66
2022-08-23T12:12:38.123Z,22249.38
2022-08-23T12:15:11.988Z,22178.19
2022-08-23T12:18:24.440Z,22149.72
2022-08-23T12:20:59.997Z,22135.47
2022-08-23T12:23:30.936Z,22137.50
2022-08-23T12:26:04.377Z,22090.75
2022-08-23T12:28:49.668Z,22139.56
2022-08-23T12:31:29.772Z,22005.34
2022-08-23T12:34:23.322Z,21948.41
2022-08-23T12:37:08.869Z,21907.72
2022-08-23T12:39:47.974Z,21814.19
2022-08-23T12:42:21.112Z,21743.03
2022-08-23T12:45:03.938Z,21769.47
2022-08-23T12:47:32.755Z,21828.44
2022-08-23T12:50:09.170Z,21956.53
2022-08-23T12:52:38.699Z,22001.28
2022-08-23T12:55:18.454Z,22090.75
2022-08-23T12:57:55.204Z,22279.88
2022-08-23T13:00:28.874Z,22458.84
2022-08-23T13:03:02.200Z,22566.63
2022-08-23T13:05:46.037Z,22650.00
2022-08-23T13:08:22.808Z,22668.31
2022-08-23T13:11:08.012Z,22619.50
2022-08-23T13:13:40.886Z,22548.31
2022-08-23T13:16:28.193Z,22438.50
2022-08-23T13:19:19.152Z,22408.00
2022-08-23T13:21:47.361Z,22342.91
2022-08-23T13:24:38.277Z,22294.09
2022-08-23T13:27:23.197Z,22275.81
2022-08-23T13:29:56.383Z,22316.47
2022-08-23T13:32:41.723Z,22231.06
2022-08-23T13:35:35.912Z,22212.75
2022-08-23T13:38:21.369Z,22159.88
2022-08-23T13:41:01.086Z,22033.81
2022-08-23T13:43:38.633Z,21991.09
2022-08-23T13:46:19.444Z,21938.22
2022-08-23T13:48:59.168Z,21871.13
2022-08-23T13:51:32.277Z,21940.25
2022-08-23T13:54:03.464Z,21982.97
2022-08-23T13:56:36.598Z,22094.81
2022-08-23T13:59:26.760Z,22123.28
2022-08-23T14:01:56.391Z,22180.22
2022-08-23T14:04:24.654Z,22170.06
2022-08-23T14:06:52.759Z,22186.31
2022-08-23T14:09:21.098Z,22212.75
2022-08-23T14:11:55.491Z,22149.72
2022-08-23T14:14:25.538Z,22123.28
2022-08-23T14:16:54.413Z,22180.22
2022-08-23T14:22:10.865Z,22172.09
2022-08-23T14:24:39.246Z,22125.31
2022-08-23T14:27:09.078Z,22107.00
2022-08-23T14:29:39.308Z,22084.66
2022-08-23T14:32:07.669Z,22090.75
2022-08-23T14:34:35.842Z,22080.56
2022-08-23T14:39:52.378Z,22041.94
2022-08-23T14:42:24.355Z,22092.78
2022-08-23T14:44:53.925Z,22100.91
2022-08-23T14:47:22.011Z,22094.81
2022-08-23T14:49:53.674Z,22119.22
2022-08-23T14:52:23.946Z,22180.22
2022-08-23T14:54:52.137Z,22210.72
2022-08-23T14:57:20.433Z,22182.25
2022-08-23T14:59:48.603Z,22166.00
2022-08-23T15:02:25.004Z,22188.34
2022-08-23T15:04:54.030Z,22149.72
2022-08-23T15:07:22.969Z,22137.50
2022-08-23T15:09:55.143Z,22149.72
2022-08-23T15:15:21.895Z,22072.44
2022-08-23T15:17:55.861Z,22037.88
2022-08-23T15:20:28.040Z,21999.25
2022-08-23T15:22:56.340Z,22054.13
2022-08-23T15:25:26.691Z,22027.72
2022-08-23T15:27:55.259Z,22074.47
2022-08-23T15:30:25.174Z,22037.88
2022-08-23T15:32:56.625Z,22037.88
2022-08-23T15:35:25.919Z,21985.00
2022-08-23T15:37:55.958Z,21993.13
2022-08-23T15:40:25.865Z,21987.03
2022-08-23T15:42:54.362Z,21985.00
2022-08-23T15:45:22.868Z,22023.63
2022-08-23T15:47:56.363Z,21966.69
2022-08-23T15:50:30.981Z,21948.41
2022-08-23T15:52:59.410Z,21936.19
2022-08-23T15:55:33.485Z,21956.53
2022-08-23T15:58:01.755Z,21924.00
2022-08-23T16:00:30.177Z,22007.38
2022-08-23T16:03:18.527Z,21968.72
2022-08-23T16:05:52.266Z,21915.88
2022-08-23T16:08:26.354Z,21873.16
2022-08-23T16:10:55.520Z,21913.84
2022-08-23T16:13:24.997Z,21919.94
2022-08-23T16:15:53.881Z,21952.47
2022-08-23T16:18:23.501Z,21897.56
2022-08-23T16:20:54.320Z,21844.69
2022-08-23T16:23:23.143Z,21869.09
2022-08-23T16:25:51.440Z,21842.66
2022-08-23T16:28:19.670Z,21850.78
2022-08-23T16:30:47.906Z,21836.56
2022-08-23T16:33:16.095Z,21806.06
2022-08-23T16:35:45.797Z,21846.72
2022-08-23T16:38:13.981Z,21822.31
2022-08-23T16:40:42.093Z,21777.59
2022-08-23T16:43:10.232Z,21769.47
2022-08-23T16:45:38.409Z,21789.78
2022-08-23T16:48:06.945Z,21749.13
2022-08-23T16:50:35.016Z,21741.00
2022-08-23T16:53:07.375Z,21692.19
2022-08-23T16:55:36.239Z,21690.16
2022-08-23T16:58:05.968Z,21728.78
2022-08-23T17:00:34.862Z,21639.31
2022-08-23T17:03:04.048Z,21653.56
2022-08-23T17:05:32.379Z,21625.09
2022-08-23T17:08:00.864Z,21602.72
2022-08-23T17:10:30.579Z,21588.50
2022-08-23T17:12:59.632Z,21592.56
2022-08-23T17:15:32.030Z,21570.19
2022-08-23T17:18:00.806Z,21578.31
2022-08-23T17:20:33.717Z,21547.81
2022-08-23T17:23:05.678Z,21547.81
2022-08-23T17:25:36.352Z,21486.81
2022-08-23T17:28:06.634Z,21501.06
2022-08-23T17:30:35.481Z,21476.66
2022-08-23T17:33:04.242Z,21494.97
2022-08-23T17:35:34.747Z,21456.34
2022-08-23T17:38:05.345Z,21478.69
2022-08-23T17:40:39.768Z,21517.31
2022-08-23T17:43:08.485Z,21499.03
2022-08-23T17:45:44.183Z,21476.66
2022-08-23T17:48:13.018Z,21423.81
2022-08-23T17:50:43.568Z,21427.88
2022-08-23T17:53:14.406Z,21409.56
2022-08-23T17:55:44.640Z,21399.41
2022-08-23T17:58:14.137Z,21387.19
2022-08-23T18:00:42.554Z,21417.69
2022-08-23T18:03:10.705Z,21364.84
2022-08-23T18:05:41.050Z,21316.03
2022-08-23T18:08:10.266Z,21285.53
2022-08-23T18:10:38.424Z,21291.66
2022-08-23T18:13:08.308Z,21261.16
2022-08-23T18:15:36.596Z,21275.38
2022-08-23T18:18:06.128Z,21228.63
2022-08-23T18:20:34.730Z,21192.03
2022-08-23T18:23:03.342Z,21177.78
2022-08-23T18:25:32.088Z,21171.69
2022-08-23T18:28:08.528Z,21143.22
2022-08-23T18:30:40.907Z,21124.94
2022-08-23T18:33:12.489Z,21129.00
2022-08-23T18:35:42.712Z,21096.47
2022-08-23T18:38:12.516Z,21126.97
2022-08-23T18:40:46.137Z,21086.31
2022-08-23T18:43:16.797Z,21102.56
2022-08-23T18:45:48.532Z,21049.72
2022-08-23T18:48:17.502Z,21059.88
2022-08-23T18:50:47.265Z,21017.19
2022-08-23T18:53:15.559Z,21023.28
2022-08-23T18:55:44.203Z,21025.31
2022-08-23T18:58:12.288Z,21011.09
2022-08-23T19:00:41.814Z,21019.22
2022-08-23T19:03:12.366Z,21029.38
2022-08-23T19:05:42.550Z,21007.00
2022-08-23T19:08:12.115Z,21011.09
2022-08-23T19:10:41.766Z,20994.81
2022-08-23T19:13:10.947Z,20964.31
2022-08-23T19:15:42.030Z,21007.00
2022-08-23T19:18:11.674Z,20962.28
2022-08-23T19:20:39.759Z,20974.50
2022-08-23T19:23:07.972Z,20941.97
2022-08-23T19:25:38.461Z,20944.00
2022-08-23T19:28:07.373Z,20876.91
2022-08-23T19:30:35.764Z,20980.59
2022-08-23T19:33:04.622Z,20933.81
2022-08-23T19:35:34.823Z,20903.34
2022-08-23T19:38:03.299Z,20878.94
2022-08-23T19:40:31.529Z,20885.03
2022-08-23T19:43:00.415Z,20901.31
2022-08-23T19:45:31.973Z,20850.47
2022-08-23T19:48:00.914Z,20878.94
2022-08-23T19:50:30.316Z,20860.66
2022-08-23T19:53:00.015Z,20856.56
2022-08-23T19:55:29.122Z,20872.84
2022-08-23T19:57:58.188Z,20903.34
2022-08-23T20:00:28.082Z,20874.88
2022-08-23T20:02:56.246Z,20846.41
2022-08-23T20:05:24.399Z,20889.09
2022-08-23T20:07:52.604Z,20842.34
2022-08-23T20:10:22.693Z,20852.50
2022-08-23T20:12:50.814Z,20838.28
2022-08-23T20:15:19.258Z,20850.47
2022-08-23T20:17:47.335Z,20811.84
2022-08-23T20:20:15.507Z,20826.09
2022-08-23T20:23:01.514Z,20822.03
2022-08-23T20:25:31.734Z,20771.19
2022-08-23T20:28:00.157Z,20803.72
2022-08-23T20:30:28.311Z,20767.13
2022-08-23T20:32:56.529Z,20761.03
2022-08-23T20:35:24.884Z,20750.88
2022-08-23T20:37:52.988Z,20756.97
2022-08-23T20:40:21.844Z,20752.91
2022-08-23T20:42:52.178Z,20738.66
2022-08-23T20:45:20.654Z,20698.00
2022-08-23T20:47:48.799Z,20695.97
2022-08-23T20:50:17.191Z,20657.34
2022-08-23T20:52:45.347Z,20663.47
2022-08-23T20:55:15.300Z,20616.69
2022-08-23T20:57:43.442Z,20604.50
2022-08-23T21:00:14.511Z,20630.94
2022-08-23T21:02:42.627Z,20622.81
2022-08-23T21:05:11.209Z,20586.22
2022-08-23T21:07:40.095Z,20612.63
2022-08-23T21:10:10.788Z,20614.66
2022-08-23T21:12:39.177Z,20596.38
2022-08-23T21:15:11.075Z,20578.09
2022-08-23T21:17:40.844Z,20612.63
2022-08-23T21:20:09.977Z,20651.25
2022-08-23T21:22:38.207Z,20614.66
2022-08-23T21:25:07.473Z,20647.19
2022-08-23T21:27:36.412Z,20578.09
2022-08-23T21:30:06.443Z,20635.00
2022-08-23T21:32:34.712Z,20578.09
2022-08-23T21:35:04.629Z,20533.34
2022-08-23T21:37:32.906Z,20543.53
2022-08-23T21:40:01.389Z,20523.19
2022-08-23T21:42:30.525Z,20580.13
2022-08-23T21:44:58.726Z,20506.94
2022-08-23T21:47:27.078Z,20476.44
2022-08-23T21:49:55.423Z,20500.84
2022-08-23T21:52:25.083Z,20488.63
2022-08-23T21:54:53.489Z,20506.94
2022-08-23T21:57:21.621Z,20476.44
2022-08-23T21:59:50.207Z,20417.50
2022-08-23T22:02:19.245Z,20431.72
2022-08-23T22:04:48.162Z,20443.91
2022-08-23T22:07:16.313Z,20431.72
2022-08-23T22:09:46.741Z,20429.69
2022-08-23T22:12:15.088Z,20466.28
2022-08-23T22:14:43.208Z,20409.38
2022-08-23T22:17:11.371Z,20384.97
2022-08-23T22:19:39.503Z,20391.06
2022-08-23T22:22:07.678Z,20360.59
2022-08-23T22:24:35.827Z,20336.19
2022-08-23T22:27:06.105Z,20352.44
2022-08-23T22:29:34.571Z,20313.84
2022-08-23T22:32:03.027Z,20342.28
2022-08-23T22:34:31.293Z,20344.31
2022-08-23T22:36:59.452Z,20324.00
2022-08-23T22:39:27.861Z,20297.56
2022-08-23T22:41:56.351Z,20301.63
2022-08-23T22:44:25.769Z,20258.94
2022-08-23T22:46:53.923Z,20252.84
2022-08-23T22:49:22.108Z,20248.78
2022-08-23T22:51:55.516Z,20224.41
2022-08-23T22:54:24.612Z,20214.22
2022-08-23T22:56:54.747Z,20183.75
2022-08-23T22:59:31.150Z,20159.34
2022-08-23T23:02:03.364Z,20159.34
2022-08-23T23:04:33.643Z,20183.75
2022-08-23T23:07:02.555Z,20206.09
2022-08-23T23:09:30.902Z,20171.56
2022-08-23T23:11:59.195Z,20124.81
2022-08-23T23:14:28.901Z,20108.53
2022-08-23T23:16:57.150Z,20098.38
2022-08-23T23:19:42.844Z,20108.53
2022-08-23T23:22:14.221Z,20078.06
2022-08-23T23:24:42.524Z,20031.31
2022-08-23T23:27:10.637Z,20084.16
2022-08-23T23:29:40.082Z,20002.84
2022-08-23T23:32:08.488Z,20000.81
2022-08-23T23:34:37.845Z,19943.91
2022-08-23T23:37:06.289Z,19909.34
2022-08-23T23:39:34.549Z,19860.59
2022-08-23T23:42:02.724Z,19854.50
2022-08-23T23:44:31.950Z,19876.84
2022-08-23T23:47:02.350Z,19866.69
2022-08-23T23:49:33.489Z,19838.22
2022-08-23T23:52:04.310Z,19836.19
2022-08-23T23:54:35.409Z,19819.94
2022-08-23T23:57:04.420Z,19819.94
2022-08-23T23:59:33.067Z,19783.34
